Time;durP1;ratioP1;P1;durP2;ratioP2;P2;SDS_P1;SDS_P2;PMS_P1;PMS_P2;Temp;Humidity;BMP_temperature;BMP_pressure;BME280_temperature;BME280_humidity;BME280_pressure;Samples;Min_cycle;Max_cycle;Signal;HPM_P1;HPM_P2
2021/04/06 00:00:59;;;;;;;1.00;0.90;;;1.50;99.90;;;;;;6223850;28;20772;-68
2021/04/06 00:04:05;;;;;;;1.00;0.90;;;1.50;99.90;;;;;;6208900;28;20354;-67
2021/04/06 00:07:09;;;;;;;1.70;1.10;;;1.60;99.90;;;;;;6207259;28;20587;-67
2021/04/06 00:10:19;;;;;;;0.93;0.87;;;1.60;99.90;;;;;;6209522;28;20281;-67
2021/04/06 00:13:23;;;;;;;1.30;1.00;;;1.60;99.90;;;;;;6207053;28;20604;-67
2021/04/06 00:16:26;;;;;;;0.80;0.80;;;1.60;99.90;;;;;;6207738;28;20722;-68
2021/04/06 00:19:32;;;;;;;0.50;0.50;;;1.60;99.90;;;;;;6206870;28;20243;-68
2021/04/06 00:22:36;;;;;;;0.63;0.63;;;1.60;99.90;;;;;;6206974;28;20256;-68
2021/04/06 00:25:42;;;;;;;0.70;0.60;;;1.50;99.90;;;;;;6217402;28;20236;-67
2021/04/06 00:28:45;;;;;;;1.00;0.70;;;1.60;99.90;;;;;;6231572;28;20228;-67
2021/04/06 00:31:50;;;;;;;0.63;0.63;;;1.50;99.90;;;;;;6230503;28;20228;-67
2021/04/06 00:34:56;;;;;;;0.60;0.60;;;1.50;99.90;;;;;;6232477;28;20231;-67
2021/04/06 00:37:58;;;;;;;1.00;0.90;;;1.50;99.90;;;;;;6231405;28;20688;-67
2021/04/06 00:41:07;;;;;;;1.10;1.00;;;1.50;99.90;;;;;;6230014;28;20238;-67
2021/04/06 00:44:13;;;;;;;1.37;1.10;;;1.40;99.90;;;;;;6236122;28;20239;-67
2021/04/06 00:47:23;;;;;;;3.10;1.40;;;1.30;99.90;;;;;;6232048;28;20235;-67
2021/04/06 00:50:31;;;;;;;1.30;1.20;;;1.10;99.90;;;;;;6231651;28;20234;-68
2021/04/06 00:54:00;;;;;;;1.30;1.20;;;1.10;99.90;;;;;;6232161;28;20247;-67
2021/04/06 00:57:06;;;;;;;2.00;1.77;;;1.00;99.90;;;;;;6230324;28;20261;-67
2021/04/06 01:00:18;;;;;;;1.13;1.03;;;0.90;99.90;;;;;;6231727;28;20263;-68
2021/04/06 01:03:26;;;;;;;2.67;1.67;;;0.90;99.90;;;;;;6234464;28;20216;-68
2021/04/06 01:06:27;;;;;;;2.97;1.40;;;0.80;99.90;;;;;;6230228;28;20231;-68
2021/04/06 01:09:42;;;;;;;1.73;1.63;;;0.80;99.90;;;;;;6213137;28;20219;-68
2021/04/06 01:12:44;;;;;;;1.73;1.50;;;0.80;99.90;;;;;;6230601;28;20319;-68
2021/04/06 01:15:47;;;;;;;1.50;1.40;;;0.80;99.90;;;;;;6231192;28;20229;-68
2021/04/06 01:18:49;;;;;;;1.17;1.00;;;0.80;99.90;;;;;;6229279;28;20236;-68
2021/04/06 01:21:52;;;;;;;1.10;1.00;;;0.80;99.90;;;;;;6230368;28;20255;-68
2021/04/06 01:24:54;;;;;;;2.83;0.93;;;0.80;99.90;;;;;;6227022;28;20712;-68
2021/04/06 01:28:06;;;;;;;0.87;0.83;;;0.80;99.90;;;;;;6211602;28;20366;-68
2021/04/06 01:31:10;;;;;;;1.30;0.77;;;0.80;99.90;;;;;;6210527;28;20241;-68
2021/04/06 01:34:12;;;;;;;2.93;0.70;;;0.70;99.90;;;;;;6210799;28;20236;-68
2021/04/06 01:37:22;;;;;;;1.87;0.90;;;0.80;99.90;;;;;;6211439;28;20371;-68
2021/04/06 01:40:24;;;;;;;1.70;0.87;;;0.80;99.90;;;;;;6210261;28;20240;-68
2021/04/06 01:43:30;;;;;;;1.33;0.60;;;0.80;99.90;;;;;;6209543;28;20238;-68
2021/04/06 01:46:43;;;;;;;1.10;0.87;;;0.80;99.90;;;;;;6209887;28;20234;-68
2021/04/06 01:49:46;;;;;;;0.80;0.53;;;0.80;99.90;;;;;;6210085;28;20233;-68
2021/04/06 01:52:51;;;;;;;3.00;0.90;;;0.80;99.90;;;;;;6208292;28;20244;-68
2021/04/06 01:56:00;;;;;;;1.20;0.83;;;0.90;99.90;;;;;;6192956;28;20229;-68
2021/04/06 01:59:04;;;;;;;2.87;0.90;;;0.90;99.90;;;;;;6210197;28;20228;-68
2021/04/06 02:02:09;;;;;;;1.50;0.60;;;0.80;99.90;;;;;;6219367;28;20249;-68
2021/04/06 02:05:13;;;;;;;2.10;0.73;;;0.80;99.90;;;;;;6235191;28;20712;-68
2021/04/06 02:08:19;;;;;;;2.00;0.80;;;0.80;99.90;;;;;;6216979;28;20228;-68
2021/04/06 02:11:26;;;;;;;1.07;0.90;;;0.80;99.90;;;;;;6236313;28;20566;-68
2021/04/06 02:14:30;;;;;;;2.37;0.60;;;0.80;99.90;;;;;;6233536;28;20238;-68
2021/04/06 02:17:31;;;;;;;0.60;0.60;;;0.80;99.90;;;;;;6233604;28;20623;-68
2021/04/06 02:20:33;;;;;;;1.63;0.70;;;0.80;99.90;;;;;;6234955;28;20281;-68
2021/04/06 02:23:43;;;;;;;0.93;0.80;;;0.80;99.90;;;;;;6232226;28;20227;-68
2021/04/06 02:26:45;;;;;;;2.50;0.97;;;0.80;99.90;;;;;;6233937;28;20610;-68
2021/04/06 02:29:47;;;;;;;1.10;0.83;;;0.80;99.90;;;;;;6231043;28;20238;-68
2021/04/06 02:32:53;;;;;;;2.73;1.00;;;0.80;99.90;;;;;;6232373;28;20742;-68
2021/04/06 02:36:07;;;;;;;2.03;0.70;;;0.80;99.90;;;;;;6231910;28;20236;-68
2021/04/06 02:39:11;;;;;;;1.23;0.90;;;0.90;99.90;;;;;;6257044;28;20301;-68
2021/04/06 02:42:28;;;;;;;1.03;0.87;;;0.90;99.90;;;;;;6255545;28;20195;-68
2021/04/06 02:45:30;;;;;;;1.80;1.37;;;0.90;99.90;;;;;;6257670;28;21159;-68
2021/04/06 02:48:34;;;;;;;1.77;1.00;;;0.90;99.90;;;;;;6257513;28;20303;-69
2021/04/06 02:51:36;;;;;;;2.30;1.30;;;0.90;99.90;;;;;;6256531;28;20235;-69
2021/04/06 02:54:38;;;;;;;1.97;1.07;;;0.90;99.90;;;;;;6257108;28;20619;-69
2021/04/06 02:57:44;;;;;;;1.93;1.17;;;0.90;99.90;;;;;;6258372;28;20418;-69
2021/04/06 03:00:46;;;;;;;1.20;1.10;;;0.90;99.90;;;;;;6255384;28;20223;-67
2021/04/06 03:03:48;;;;;;;4.73;1.93;;;0.90;99.90;;;;;;6240162;28;20270;-67
2021/04/06 03:07:00;;;;;;;2.03;1.23;;;1.00;99.90;;;;;;6257549;28;20252;-68
2021/04/06 03:10:02;;;;;;;1.67;1.40;;;1.00;99.90;;;;;;6257410;28;20227;-68
2021/04/06 03:13:14;;;;;;;1.20;1.00;;;1.00;99.90;;;;;;6258741;28;20301;-68
2021/04/06 03:16:16;;;;;;;3.27;1.50;;;1.00;99.90;;;;;;6257321;28;20317;-68
2021/04/06 03:19:28;;;;;;;1.17;0.80;;;1.00;99.90;;;;;;6256720;28;20237;-68
2021/04/06 03:22:30;;;;;;;2.30;1.07;;;1.00;99.90;;;;;;6255080;28;20781;-68
2021/04/06 03:25:34;;;;;;;1.67;0.93;;;1.00;99.90;;;;;;6257955;28;20251;-68
2021/04/06 03:28:40;;;;;;;1.77;1.20;;;1.00;99.90;;;;;;6254919;28;20239;-68
2021/04/06 03:31:42;;;;;;;1.70;1.20;;;1.00;99.90;;;;;;6256806;28;20318;-68
2021/04/06 03:34:44;;;;;;;1.93;1.10;;;1.00;99.90;;;;;;6257866;28;20230;-68
2021/04/06 03:37:46;;;;;;;4.40;1.17;;;1.00;99.90;;;;;;6257333;28;20676;-67
2021/04/06 03:40:48;;;;;;;1.47;0.87;;;0.90;99.90;;;;;;6257133;28;20735;-67
2021/04/06 03:43:51;;;;;;;1.87;1.10;;;0.90;99.90;;;;;;6256212;28;20606;-68
2021/04/06 03:46:59;;;;;;;2.00;1.53;;;1.00;99.90;;;;;;6255683;28;20574;-68
2021/04/06 03:50:01;;;;;;;2.07;1.57;;;0.90;99.90;;;;;;6257604;28;20231;-68
2021/04/06 03:53:05;;;;;;;1.30;1.20;;;0.90;99.90;;;;;;6256328;28;20242;-68
2021/04/06 03:56:12;;;;;;;1.87;1.70;;;0.90;99.90;;;;;;6257331;28;20251;-68
2021/04/06 03:59:14;;;;;;;2.73;1.40;;;1.00;99.90;;;;;;6255384;28;20349;-68
2021/04/06 04:02:16;;;;;;;3.00;1.33;;;0.90;99.90;;;;;;6255452;28;20225;-67
2021/04/06 04:05:18;;;;;;;3.03;1.70;;;0.90;99.90;;;;;;6255895;28;20251;-68
2021/04/06 04:08:20;;;;;;;2.13;1.57;;;0.90;99.90;;;;;;6255676;28;20229;-68
2021/04/06 04:11:24;;;;;;;2.27;1.70;;;0.90;99.90;;;;;;6255181;28;20291;-68
2021/04/06 04:14:26;;;;;;;2.07;1.63;;;0.90;99.90;;;;;;6255361;28;20230;-68
2021/04/06 04:17:28;;;;;;;2.77;1.50;;;0.90;99.90;;;;;;6256362;28;20712;-68
2021/04/06 04:20:30;;;;;;;2.27;1.33;;;0.90;99.90;;;;;;6257363;28;20318;-67
2021/04/06 04:23:32;;;;;;;1.50;1.40;;;0.90;99.90;;;;;;6256961;28;20229;-67
2021/04/06 04:26:35;;;;;;;1.87;1.43;;;0.90;99.90;;;;;;6256654;28;20222;-67
2021/04/06 04:29:37;;;;;;;1.67;1.30;;;0.90;99.90;;;;;;6253130;28;20236;-68
2021/04/06 04:32:40;;;;;;;1.30;1.10;;;0.80;99.90;;;;;;6256683;28;20653;-68
2021/04/06 04:35:42;;;;;;;3.13;1.10;;;0.80;99.90;;;;;;6255854;28;20231;-67
2021/04/06 04:38:44;;;;;;;2.43;1.13;;;0.80;99.90;;;;;;6255822;28;20227;-67
2021/04/06 04:41:50;;;;;;;3.03;1.40;;;0.80;99.90;;;;;;6255687;28;20223;-68
2021/04/06 04:44:52;;;;;;;2.57;1.13;;;0.80;99.90;;;;;;6253264;28;20224;-68
2021/04/06 04:47:54;;;;;;;2.87;1.10;;;0.80;99.90;;;;;;6255591;28;20226;-68
2021/04/06 04:50:55;;;;;;;1.90;1.10;;;0.80;99.90;;;;;;6253618;28;20230;-68
2021/04/06 04:53:57;;;;;;;1.43;1.17;;;0.80;99.90;;;;;;6256172;28;20312;-68
2021/04/06 04:57:00;;;;;;;2.30;0.90;;;0.70;99.90;;;;;;6253830;28;20227;-68
2021/04/06 05:00:03;;;;;;;1.33;0.90;;;0.80;99.90;;;;;;6236075;28;20223;-68
2021/04/06 05:03:05;;;;;;;1.27;1.00;;;0.80;99.90;;;;;;6236658;28;20223;-68
2021/04/06 05:06:07;;;;;;;1.30;1.20;;;0.70;99.90;;;;;;6234802;28;20212;-68
2021/04/06 05:09:09;;;;;;;2.33;1.47;;;0.70;99.90;;;;;;6236546;28;20252;-68
2021/04/06 05:12:11;;;;;;;3.27;1.57;;;0.70;99.90;;;;;;6236614;28;20214;-68
2021/04/06 05:15:13;;;;;;;1.37;1.20;;;0.70;99.90;;;;;;6236131;28;20392;-68
2021/04/06 05:18:15;;;;;;;1.40;1.30;;;0.70;99.90;;;;;;6234500;28;20258;-68
2021/04/06 05:21:17;;;;;;;2.20;1.50;;;0.70;99.90;;;;;;6234698;28;20326;-68
2021/04/06 05:24:19;;;;;;;1.63;1.50;;;0.80;99.90;;;;;;6234144;28;20285;-68
2021/04/06 05:27:20;;;;;;;2.57;2.10;;;0.80;99.90;;;;;;6211652;28;20441;-68
2021/04/06 05:30:22;;;;;;;2.30;1.77;;;0.90;99.90;;;;;;6209676;28;20228;-68
2021/04/06 05:33:24;;;;;;;3.97;1.63;;;0.90;99.90;;;;;;6210057;28;20282;-68
2021/04/06 05:36:26;;;;;;;1.93;1.73;;;0.90;99.90;;;;;;6209559;28;20709;-68
2021/04/06 05:39:29;;;;;;;3.53;1.80;;;1.00;99.90;;;;;;6211302;28;20311;-68
2021/04/06 05:42:31;;;;;;;2.43;2.00;;;1.00;99.90;;;;;;6210213;28;20683;-68
2021/04/06 05:45:33;;;;;;;3.17;2.30;;;0.90;99.90;;;;;;6210977;28;20224;-68
2021/04/06 05:48:36;;;;;;;3.70;1.97;;;1.00;99.90;;;;;;6211268;28;20228;-68
2021/04/06 05:51:43;;;;;;;2.63;2.27;;;0.90;99.90;;;;;;6210176;28;20319;-68
2021/04/06 05:54:45;;;;;;;2.90;2.00;;;0.90;99.90;;;;;;6215587;28;20227;-68
2021/04/06 05:57:47;;;;;;;3.37;2.40;;;0.90;99.90;;;;;;6232502;28;20260;-68
2021/04/06 06:00:49;;;;;;;2.40;2.10;;;0.90;99.90;;;;;;6235475;28;20701;-67
2021/04/06 06:03:52;;;;;;;3.00;1.93;;;0.90;99.90;;;;;;6236236;28;20657;-67
2021/04/06 06:06:54;;;;;;;3.13;2.47;;;1.00;99.90;;;;;;6226106;28;20717;-67
2021/04/06 06:09:56;;;;;;;2.57;2.00;;;1.00;99.90;;;;;;6209097;28;20228;-67
2021/04/06 06:13:17;;;;;;;2.63;2.03;;;1.10;99.90;;;;;;6210401;28;20683;-67
2021/04/06 06:16:22;;;;;;;3.70;1.90;;;1.10;99.90;;;;;;6209734;28;20234;-68
2021/04/06 06:19:32;;;;;;;2.10;1.90;;;1.00;99.90;;;;;;6209287;28;20233;-68
2021/04/06 06:22:36;;;;;;;4.30;2.37;;;1.00;99.90;;;;;;6209982;28;20749;-68
2021/04/06 06:25:38;;;;;;;2.70;2.20;;;1.00;99.90;;;;;;6221683;28;20216;-68
2021/04/06 06:28:41;;;;;;;3.27;1.93;;;1.10;99.90;;;;;;6233281;28;20277;-68
2021/04/06 06:31:47;;;;;;;5.57;2.10;;;1.20;99.90;;;;;;6233282;28;20224;-68
2021/04/06 06:34:51;;;;;;;2.00;1.80;;;1.20;99.90;;;;;;6232683;28;20236;-68
2021/04/06 06:37:54;;;;;;;2.57;2.27;;;1.30;99.90;;;;;;6233951;28;20228;-68
2021/04/06 06:41:20;;;;;;;2.70;1.83;;;1.40;99.90;;;;;;6232809;28;20272;-68
2021/04/06 06:44:22;;;;;;;2.30;2.07;;;1.40;99.90;;;;;;6233681;28;20709;-68
2021/04/06 06:47:26;;;;;;;3.13;2.30;;;1.40;99.90;;;;;;6234101;28;20716;-68
2021/04/06 06:50:28;;;;;;;2.80;2.53;;;1.50;99.90;;;;;;6215766;28;20709;-68
2021/04/06 06:53:39;;;;;;;5.40;3.03;;;1.50;99.90;;;;;;6233324;28;20329;-68
2021/04/06 06:56:42;;;;;;;3.47;3.00;;;1.50;99.90;;;;;;6233257;28;20609;-68
2021/04/06 06:59:48;;;;;;;4.37;3.57;;;1.60;99.90;;;;;;6231689;28;20757;-68
2021/04/06 07:02:50;;;;;;;5.40;3.50;;;1.70;99.90;;;;;;6233082;28;20219;-68
2021/04/06 07:05:52;;;;;;;4.27;3.30;;;1.60;99.90;;;;;;6216491;28;20239;-68
2021/04/06 07:08:55;;;;;;;3.57;3.27;;;1.60;99.90;;;;;;6230596;28;20306;-68
2021/04/06 07:12:00;;;;;;;3.20;2.90;;;1.60;99.90;;;;;;6233414;28;20231;-68
2021/04/06 07:15:02;;;;;;;5.47;3.17;;;1.70;99.90;;;;;;6231963;28;20240;-68
2021/04/06 07:18:25;;;;;;;3.47;3.13;;;1.80;99.90;;;;;;6214340;28;20230;-68
2021/04/06 07:21:27;;;;;;;3.30;2.93;;;2.00;99.90;;;;;;6231935;28;20326;-68
2021/04/06 07:24:35;;;;;;;2.70;2.50;;;2.00;99.90;;;;;;6230709;28;20228;-68
2021/04/06 07:27:37;;;;;;;4.80;3.30;;;2.00;99.90;;;;;;6208899;28;20298;-68
2021/04/06 07:30:39;;;;;;;5.47;2.83;;;2.10;99.90;;;;;;6207881;28;20237;-68
2021/04/06 07:33:42;;;;;;;3.57;3.10;;;2.20;99.90;;;;;;6207649;28;20727;-69
2021/04/06 07:36:45;;;;;;;3.37;2.80;;;2.30;99.90;;;;;;6211973;28;20334;-69
2021/04/06 07:39:49;;;;;;;3.40;2.40;;;2.20;99.90;;;;;;6211187;28;20698;-68
2021/04/06 07:42:52;;;;;;;3.83;2.63;;;2.30;99.90;;;;;;6207422;28;20232;-69
2021/04/06 07:45:54;;;;;;;4.27;2.63;;;2.40;99.90;;;;;;6191074;28;20764;-69
2021/04/06 07:48:56;;;;;;;3.70;2.47;;;2.60;99.90;;;;;;6205960;28;20611;-69
2021/04/06 07:52:04;;;;;;;3.63;2.60;;;2.50;99.90;;;;;;6206772;28;20217;-69
2021/04/06 07:55:41;;;;;;;3.03;2.77;;;2.60;99.90;;;;;;6208291;28;20236;-69
2021/04/06 07:58:47;;;;;;;4.23;2.90;;;2.50;99.90;;;;;;6207998;28;20689;-69
2021/04/06 08:01:54;;;;;;;3.50;3.00;;;2.40;99.90;;;;;;6216608;28;20227;-68
2021/04/06 08:05:00;;;;;;;3.13;2.83;;;2.50;99.90;;;;;;6232460;28;20655;-68
2021/04/06 08:08:34;;;;;;;6.37;2.63;;;2.60;99.90;;;;;;6232725;28;20381;-69
2021/04/06 08:12:03;;;;;;;5.63;2.70;;;2.70;99.90;;;;;;6205989;28;20721;-69
2021/04/06 08:15:12;;;;;;;4.00;2.80;;;2.70;99.90;;;;;;6205192;28;20825;-69
2021/04/06 08:18:15;;;;;;;2.83;2.50;;;2.70;99.60;;;;;;6228783;28;20291;-69
2021/04/06 08:21:19;;;;;;;2.90;2.23;;;2.90;99.60;;;;;;6231963;28;20736;-70
2021/04/06 08:24:22;;;;;;;5.50;2.50;;;3.00;98.70;;;;;;6230911;28;20232;-69
2021/04/06 08:27:36;;;;;;;2.93;2.17;;;3.20;99.20;;;;;;6237603;28;20236;-69
2021/04/06 08:30:39;;;;;;;2.67;2.33;;;3.30;99.00;;;;;;6254079;28;20253;-69
2021/04/06 08:33:41;;;;;;;3.70;2.67;;;3.10;98.30;;;;;;6254348;28;20238;-69
2021/04/06 08:37:08;;;;;;;5.17;2.83;;;2.90;97.90;;;;;;6255761;28;20231;-69
2021/04/06 08:40:10;;;;;;;2.80;2.17;;;2.90;97.90;;;;;;6254987;28;20243;-69
2021/04/06 08:43:12;;;;;;;5.37;3.10;;;2.90;98.60;;;;;;6256874;28;20601;-69
2021/04/06 08:46:26;;;;;;;2.93;2.07;;;3.00;99.30;;;;;;6256267;28;20235;-69
2021/04/06 08:49:28;;;;;;;4.50;2.93;;;3.50;98.80;;;;;;6256447;28;20235;-69
2021/04/06 08:52:30;;;;;;;5.03;2.67;;;3.90;95.10;;;;;;6254676;28;20233;-69
2021/04/06 08:55:32;;;;;;;2.63;2.00;;;4.40;94.20;;;;;;6253667;28;20578;-69
2021/04/06 08:58:34;;;;;;;4.60;2.23;;;4.70;92.10;;;;;;6254056;28;20595;-69
2021/04/06 09:01:36;;;;;;;2.97;2.40;;;4.90;93.20;;;;;;6254554;28;20308;-69
2021/04/06 09:04:46;;;;;;;4.03;2.33;;;5.00;92.70;;;;;;6255241;28;20234;-69
2021/04/06 09:07:49;;;;;;;3.30;2.13;;;5.00;93.50;;;;;;6254746;28;20231;-69
2021/04/06 09:10:50;;;;;;;3.33;2.40;;;5.00;91.80;;;;;;6254489;28;20334;-68
2021/04/06 09:13:54;;;;;;;5.90;2.40;;;4.90;90.40;;;;;;6255434;28;20384;-68
2021/04/06 09:16:56;;;;;;;3.73;1.80;;;5.10;91.80;;;;;;6253507;28;20230;-68
2021/04/06 09:19:58;;;;;;;2.80;2.37;;;5.50;91.80;;;;;;6253579;28;20227;-68
2021/04/06 09:23:06;;;;;;;2.20;2.00;;;5.50;86.20;;;;;;6255023;28;20227;-68
2021/04/06 09:26:12;;;;;;;2.47;2.10;;;5.40;89.30;;;;;;6239722;28;20243;-68
2021/04/06 09:29:20;;;;;;;2.90;1.93;;;5.30;88.20;;;;;;6230214;28;20256;-68
2021/04/06 09:32:22;;;;;;;4.97;1.73;;;5.60;89.80;;;;;;6227185;28;20775;-68
2021/04/06 09:35:24;;;;;;;3.83;2.07;;;5.70;82.40;;;;;;6230271;28;20233;-69
2021/04/06 09:38:26;;;;;;;4.10;2.30;;;5.50;85.20;;;;;;6230396;28;20775;-69
2021/04/06 09:41:30;;;;;;;2.53;1.60;;;5.50;89.40;;;;;;6230594;28;20232;-68
2021/04/06 09:44:36;;;;;;;3.20;1.83;;;5.50;88.70;;;;;;6231495;28;20262;-68
2021/04/06 09:47:39;;;;;;;2.70;1.87;;;5.30;89.10;;;;;;6233766;28;20280;-68
2021/04/06 09:50:59;;;;;;;2.20;2.00;;;5.30;90.20;;;;;;6235720;28;20367;-68
2021/04/06 09:54:03;;;;;;;3.03;1.87;;;5.20;87.30;;;;;;6237735;28;20320;-68
2021/04/06 09:57:10;;;;;;;2.20;1.63;;;5.10;87.50;;;;;;6239117;28;20291;-68
2021/04/06 10:00:16;;;;;;;2.30;2.10;;;5.00;81.40;;;;;;6234804;28;20260;-68
2021/04/06 10:03:24;;;;;;;2.73;1.63;;;4.80;88.50;;;;;;6255715;28;20233;-68
2021/04/06 10:06:42;;;;;;;6.80;2.20;;;4.40;83.40;;;;;;6257542;28;20220;-68
2021/04/06 10:10:07;;;;;;;2.50;1.67;;;4.30;89.70;;;;;;6259037;28;20661;-68
2021/04/06 10:13:09;;;;;;;2.53;1.80;;;4.30;91.00;;;;;;6259417;28;20318;-68
2021/04/06 10:16:16;;;;;;;4.07;1.80;;;4.10;87.00;;;;;;6259595;28;20223;-68
2021/04/06 10:19:25;;;;;;;3.07;1.50;;;4.10;85.40;;;;;;6259843;28;20724;-68
2021/04/06 10:22:38;;;;;;;2.00;1.50;;;4.10;88.70;;;;;;6259728;28;20598;-67
2021/04/06 10:25:45;;;;;;;3.07;1.40;;;4.10;81.30;;;;;;6257525;28;20227;-68
2021/04/06 10:29:01;;;;;;;2.27;1.33;;;4.40;89.70;;;;;;6257796;28;20328;-68
2021/04/06 10:32:07;;;;;;;4.10;1.57;;;5.00;88.40;;;;;;6259471;28;20220;-68
2021/04/06 10:35:22;;;;;;;2.43;1.40;;;5.60;77.00;;;;;;6259234;28;20227;-68
2021/04/06 10:38:37;;;;;;;3.23;1.20;;;5.60;80.60;;;;;;6257024;28;20253;-68
2021/04/06 10:41:39;;;;;;;3.10;1.70;;;5.70;80.40;;;;;;6257974;28;20729;-67
2021/04/06 10:44:45;;;;;;;1.50;1.10;;;6.00;70.30;;;;;;6258228;28;20449;-67
2021/04/06 10:47:52;;;;;;;2.00;1.50;;;6.20;76.60;;;;;;6257942;28;20231;-67
2021/04/06 10:51:06;;;;;;;2.73;1.70;;;6.40;73.60;;;;;;6259078;28;20219;-68
2021/04/06 10:54:11;;;;;;;2.30;1.10;;;6.70;76.30;;;;;;6258003;28;20314;-68
2021/04/06 10:57:13;;;;;;;3.13;1.30;;;6.80;74.40;;;;;;6256537;28;20221;-68
2021/04/06 11:00:38;;;;;;;2.43;1.43;;;7.00;73.60;;;;;;6241808;28;20694;-68
2021/04/06 11:03:52;;;;;;;2.47;1.43;;;7.20;74.00;;;;;;6258119;28;20219;-68
2021/04/06 11:06:58;;;;;;;3.90;1.73;;;7.30;75.60;;;;;;6258029;28;20226;-68
2021/04/06 11:10:08;;;;;;;1.87;1.20;;;7.30;72.70;;;;;;6256625;28;20251;-68
2021/04/06 11:13:11;;;;;;;3.77;1.20;;;7.40;80.00;;;;;;6257660;28;20265;-68
2021/04/06 11:16:13;;;;;;;2.70;1.50;;;7.80;75.70;;;;;;6257820;28;20238;-67
2021/04/06 11:19:23;;;;;;;2.27;1.23;;;7.50;71.50;;;;;;6257661;28;20300;-67
2021/04/06 11:22:25;;;;;;;2.20;1.20;;;7.30;70.60;;;;;;6256066;28;20225;-67
2021/04/06 11:25:27;;;;;;;2.13;1.50;;;7.40;70.20;;;;;;6247523;28;20273;-68
2021/04/06 11:28:29;;;;;;;1.40;1.20;;;7.70;66.60;;;;;;6232316;28;20705;-67
2021/04/06 11:31:32;;;;;;;2.20;1.20;;;7.70;70.20;;;;;;6231387;28;20235;-67
2021/04/06 11:34:35;;;;;;;1.50;1.17;;;7.80;71.60;;;;;;6215224;28;20236;-68
2021/04/06 11:37:37;;;;;;;1.70;1.30;;;7.90;66.80;;;;;;6232006;28;20238;-67
2021/04/06 11:40:39;;;;;;;2.20;1.27;;;8.00;65.30;;;;;;6232278;28;20242;-67
2021/04/06 11:43:41;;;;;;;2.37;1.37;;;8.10;67.70;;;;;;6232010;28;20216;-68
2021/04/06 11:46:44;;;;;;;2.53;1.30;;;7.70;65.80;;;;;;6232765;28;20690;-67
2021/04/06 11:49:46;;;;;;;2.43;0.90;;;7.80;68.40;;;;;;6231060;28;20771;-67
2021/04/06 11:52:49;;;;;;;1.70;1.20;;;8.10;68.00;;;;;;6230339;28;20219;-67
2021/04/06 11:55:51;;;;;;;2.03;1.20;;;7.70;66.30;;;;;;6232961;28;20703;-68
2021/04/06 11:58:53;;;;;;;2.37;1.00;;;7.70;73.20;;;;;;6230677;28;20858;-67
2021/04/06 12:02:01;;;;;;;1.60;1.37;;;7.60;67.70;;;;;;6242290;28;20223;-67
2021/04/06 12:05:03;;;;;;;1.80;1.30;;;7.80;68.90;;;;;;6255795;28;20238;-67
2021/04/06 12:08:06;;;;;;;1.80;1.20;;;7.90;72.00;;;;;;6254377;28;20242;-67
2021/04/06 12:11:09;;;;;;;1.60;1.10;;;8.40;77.40;;;;;;6254666;28;20233;-67
2021/04/06 12:14:11;;;;;;;2.20;1.30;;;8.70;68.30;;;;;;6256042;28;20576;-67
2021/04/06 12:17:13;;;;;;;2.40;1.20;;;8.90;72.50;;;;;;6255260;28;20238;-67
2021/04/06 12:20:15;;;;;;;1.47;1.10;;;8.90;70.30;;;;;;6238897;28;20293;-67
2021/04/06 12:23:17;;;;;;;2.77;1.37;;;8.90;67.40;;;;;;6256071;28;20628;-67
2021/04/06 12:26:19;;;;;;;3.43;1.20;;;8.90;67.00;;;;;;6255109;28;20650;-67
2021/04/06 12:29:22;;;;;;;1.47;1.17;;;9.10;64.80;;;;;;6255485;28;20239;-67
2021/04/06 12:32:24;;;;;;;1.30;1.20;;;9.00;62.30;;;;;;6257917;28;20231;-67
2021/04/06 12:35:26;;;;;;;2.00;1.23;;;9.00;68.60;;;;;;6255293;28;20241;-67
2021/04/06 12:38:28;;;;;;;1.50;1.20;;;8.90;65.80;;;;;;6255656;28;20226;-67
2021/04/06 12:41:30;;;;;;;1.33;1.00;;;8.60;64.50;;;;;;6254921;28;20272;-67
2021/04/06 12:44:33;;;;;;;1.83;1.20;;;8.50;66.20;;;;;;6255558;28;20268;-67
2021/04/06 12:47:35;;;;;;;2.80;1.30;;;8.60;63.30;;;;;;6256185;28;20230;-67
2021/04/06 12:50:37;;;;;;;2.50;1.20;;;8.20;62.40;;;;;;6256208;28;20231;-67
2021/04/06 12:53:39;;;;;;;2.00;1.20;;;8.00;62.90;;;;;;6257218;28;20246;-67
2021/04/06 12:56:41;;;;;;;1.60;1.00;;;8.30;65.40;;;;;;6261352;28;20219;-67
2021/04/06 12:59:43;;;;;;;2.13;1.53;;;8.40;62.70;;;;;;6260825;28;20321;-67
2021/04/06 13:02:45;;;;;;;1.27;0.90;;;8.80;62.10;;;;;;6240596;28;20223;-67
2021/04/06 13:05:47;;;;;;;0.93;0.90;;;8.60;58.40;;;;;;6258247;28;20235;-67
2021/04/06 13:08:49;;;;;;;1.23;1.13;;;8.30;58.80;;;;;;6253337;28;20597;-67
2021/04/06 13:11:51;;;;;;;2.20;1.30;;;8.10;63.30;;;;;;6253864;28;20297;-67
2021/04/06 13:14:54;;;;;;;1.20;1.10;;;8.10;60.20;;;;;;6259004;28;20246;-67
2021/04/06 13:17:56;;;;;;;2.53;1.13;;;7.90;58.50;;;;;;6257572;28;20235;-67
2021/04/06 13:20:59;;;;;;;2.27;1.30;;;7.30;59.60;;;;;;6258465;28;20303;-67
2021/04/06 13:24:02;;;;;;;1.10;0.87;;;6.70;64.60;;;;;;6258654;28;20257;-67
2021/04/06 13:27:05;;;;;;;2.03;0.90;;;5.70;77.50;;;;;;6238468;28;20325;-66
2021/04/06 13:30:09;;;;;;;1.57;1.13;;;4.60;93.70;;;;;;6234948;28;20239;-66
2021/04/06 13:33:11;;;;;;;5.03;1.30;;;3.90;99.90;;;;;;6236081;28;20200;-66
2021/04/06 13:36:13;;;;;;;1.27;1.17;;;3.50;99.90;;;;;;6233119;28;20236;-66
2021/04/06 13:39:17;;;;;;;1.37;1.00;;;3.30;99.90;;;;;;6236081;28;20232;-67
2021/04/06 13:42:20;;;;;;;1.47;0.97;;;3.70;99.90;;;;;;6234209;28;20219;-67
2021/04/06 13:45:24;;;;;;;0.70;0.70;;;4.90;99.90;;;;;;6234920;28;20266;-67
2021/04/06 13:48:33;;;;;;;1.93;1.07;;;5.70;99.90;;;;;;6233543;28;20233;-67
2021/04/06 13:51:36;;;;;;;1.37;1.10;;;5.80;99.90;;;;;;6254997;28;20258;-67
2021/04/06 13:54:38;;;;;;;1.73;0.87;;;5.60;99.40;;;;;;6255485;28;20240;-67
2021/04/06 13:57:41;;;;;;;3.97;1.07;;;5.30;99.90;;;;;;6234905;28;20308;-67
2021/04/06 14:00:47;;;;;;;1.40;1.20;;;5.20;99.90;;;;;;6233666;28;20233;-67
2021/04/06 14:03:50;;;;;;;1.53;1.10;;;5.20;99.90;;;;;;6260044;28;20259;-67
2021/04/06 14:06:52;;;;;;;2.70;1.70;;;5.60;99.90;;;;;;6257559;28;20228;-68
2021/04/06 14:09:59;;;;;;;1.83;1.13;;;6.30;99.90;;;;;;6259344;28;20233;-68
2021/04/06 14:13:01;;;;;;;1.90;1.23;;;7.00;97.60;;;;;;6258474;28;20247;-68
2021/04/06 14:16:04;;;;;;;0.80;0.80;;;7.60;96.30;;;;;;6259144;28;20235;-68
2021/04/06 14:19:07;;;;;;;1.20;0.80;;;8.30;93.50;;;;;;6258226;28;20727;-68
2021/04/06 14:22:09;;;;;;;5.03;1.20;;;8.20;91.20;;;;;;6259122;28;20240;-68
2021/04/06 14:25:15;;;;;;;1.30;0.73;;;7.90;92.60;;;;;;6257504;28;20259;-68
2021/04/06 14:28:20;;;;;;;2.90;1.10;;;7.70;91.60;;;;;;6256939;28;20631;-68
2021/04/06 14:31:25;;;;;;;1.70;0.87;;;7.20;90.20;;;;;;6256473;28;20234;-68
2021/04/06 14:34:27;;;;;;;3.20;0.97;;;6.80;91.00;;;;;;6257859;28;20241;-68
2021/04/06 14:37:29;;;;;;;2.80;1.10;;;6.70;94.60;;;;;;6258258;28;20235;-68
2021/04/06 14:40:32;;;;;;;1.87;1.40;;;6.80;93.90;;;;;;6258306;28;20245;-68
2021/04/06 14:43:36;;;;;;;1.70;1.03;;;7.10;93.30;;;;;;6257693;28;20234;-68
2021/04/06 14:46:38;;;;;;;2.40;0.90;;;8.00;90.80;;;;;;6256408;28;20246;-69
2021/04/06 14:49:40;;;;;;;2.30;1.20;;;8.70;88.60;;;;;;6258564;28;20317;-68
2021/04/06 14:52:42;;;;;;;1.87;1.40;;;10.00;82.80;;;;;;6257537;28;20602;-68
2021/04/06 14:55:45;;;;;;;3.57;1.67;;;10.90;71.90;;;;;;6258586;28;20231;-68
2021/04/06 14:58:54;;;;;;;1.23;0.90;;;11.70;68.20;;;;;;6256247;28;20597;-68
2021/04/06 15:01:56;;;;;;;4.60;1.10;;;13.00;60.70;;;;;;6256253;28;20235;-68
2021/04/06 15:04:59;;;;;;;1.77;0.87;;;12.80;57.00;;;;;;6257814;28;20327;-68
2021/04/06 15:08:01;;;;;;;1.63;1.00;;;12.10;59.20;;;;;;6255973;28;20243;-68
2021/04/06 15:11:04;;;;;;;2.10;1.17;;;12.20;59.40;;;;;;6258346;28;20228;-68
2021/04/06 15:14:06;;;;;;;2.47;1.10;;;12.20;57.90;;;;;;6255875;28;20392;-68
2021/04/06 15:17:08;;;;;;;2.83;1.27;;;12.20;57.70;;;;;;6256848;28;20255;-68
2021/04/06 15:20:13;;;;;;;1.30;0.80;;;12.50;57.60;;;;;;6254875;28;20326;-68
2021/04/06 15:23:24;;;;;;;2.03;1.40;;;13.20;54.70;;;;;;6257019;28;20220;-68
2021/04/06 15:26:26;;;;;;;1.63;1.17;;;12.90;53.40;;;;;;6238690;28;20573;-68
2021/04/06 15:29:30;;;;;;;2.10;1.20;;;12.70;52.10;;;;;;6230508;28;20674;-68
2021/04/06 15:32:33;;;;;;;1.10;1.00;;;12.20;53.30;;;;;;6233254;28;20716;-68
2021/04/06 15:35:40;;;;;;;1.83;1.20;;;11.20;56.50;;;;;;6213975;28;20236;-68
2021/04/06 15:38:42;;;;;;;1.47;1.10;;;10.00;57.30;;;;;;6231636;28;20564;-68
2021/04/06 15:41:45;;;;;;;3.20;1.20;;;9.10;56.60;;;;;;6232002;28;20270;-68
2021/04/06 15:44:47;;;;;;;1.50;1.40;;;8.30;60.10;;;;;;6232145;28;20291;-68
2021/04/06 15:47:49;;;;;;;2.90;1.30;;;7.70;64.80;;;;;;6231777;28;20573;-68
2021/04/06 15:50:53;;;;;;;1.43;1.27;;;7.40;67.80;;;;;;6232051;28;21063;-68
2021/04/06 15:54:06;;;;;;;2.63;1.43;;;7.10;71.70;;;;;;6230270;28;20318;-68
2021/04/06 15:57:08;;;;;;;1.47;1.30;;;6.80;74.20;;;;;;6231736;28;20685;-68
2021/04/06 16:00:11;;;;;;;2.30;1.47;;;6.50;74.00;;;;;;6231553;28;20215;-67
2021/04/06 16:03:13;;;;;;;1.37;1.27;;;6.00;76.10;;;;;;6252682;28;20677;-68
2021/04/06 16:06:17;;;;;;;2.77;1.70;;;5.50;81.10;;;;;;6255494;28;20209;-68
2021/04/06 16:09:19;;;;;;;2.67;1.40;;;5.20;83.30;;;;;;6238827;28;20200;-67
2021/04/06 16:12:21;;;;;;;2.60;1.40;;;4.90;88.20;;;;;;6256025;28;20219;-67